createdAt,value
2022-12-09T00:02:25.682Z,-0.10
2022-12-09T00:04:53.151Z,0.10
2022-12-09T00:07:20.254Z,0.30
2022-12-09T00:09:47.761Z,0.40
2022-12-09T00:12:14.738Z,0.40
2022-12-09T00:14:41.922Z,0.40
2022-12-09T00:17:08.964Z,0.40
2022-12-09T00:19:36.256Z,0.40
2022-12-09T00:22:03.287Z,0.40
2022-12-09T00:24:30.652Z,0.50
2022-12-09T00:26:57.603Z,0.50
2022-12-09T00:29:25.585Z,0.40
2022-12-09T00:31:52.771Z,0.40
2022-12-09T00:34:20.295Z,0.50
2022-12-09T00:36:47.291Z,0.50
2022-12-09T00:39:14.518Z,0.40
2022-12-09T00:41:41.529Z,0.40
2022-12-09T00:44:09.728Z,0.30
2022-12-09T00:46:37.140Z,0.40
2022-12-09T00:49:05.058Z,0.40
2022-12-09T00:51:32.069Z,0.40
2022-12-09T00:53:59.596Z,0.30
2022-12-09T00:56:28.891Z,0.30
2022-12-09T00:58:57.403Z,0.30
2022-12-09T01:01:24.738Z,0.30
2022-12-09T01:03:52.119Z,0.30
2022-12-09T01:06:23.940Z,0.40
2022-12-09T01:08:51.733Z,0.30
2022-12-09T01:11:25.304Z,0.40
2022-12-09T01:13:53.615Z,0.40
2022-12-09T01:16:25.973Z,0.30
2022-12-09T01:18:54.868Z,0.30
2022-12-09T01:21:21.762Z,0.20
2022-12-09T01:23:49.420Z,0.20
2022-12-09T01:26:16.584Z,0.20
2022-12-09T01:28:44.011Z,0.20
2022-12-09T01:31:20.183Z,0.20
2022-12-09T01:33:48.077Z,0.20
2022-12-09T01:36:18.587Z,0.20
2022-12-09T01:38:47.306Z,0.20
2022-12-09T01:41:16.154Z,0.20
2022-12-09T01:43:43.522Z,0.20
2022-12-09T01:46:10.592Z,0.10
2022-12-09T01:48:44.784Z,0.10
2022-12-09T01:51:16.486Z,0.10
2022-12-09T01:53:46.511Z,0.10
2022-12-09T01:56:27.742Z,0.10
2022-12-09T01:59:02.434Z,0.10
2022-12-09T02:01:30.003Z,0.10
2022-12-09T02:03:57.736Z,0.10
2022-12-09T02:06:24.807Z,0.00
2022-12-09T02:08:52.504Z,-0.10
2022-12-09T02:11:22.645Z,-0.30
2022-12-09T02:14:08.870Z,-0.50
2022-12-09T02:16:46.066Z,-0.60
2022-12-09T02:19:41.853Z,-0.80
2022-12-09T02:22:12.675Z,-1.00
2022-12-09T02:24:59.274Z,-1.10
2022-12-09T02:27:43.471Z,-1.20
2022-12-09T02:30:21.892Z,-1.30
2022-12-09T02:33:11.090Z,-1.30
2022-12-09T02:35:48.670Z,-1.30
2022-12-09T02:38:21.002Z,-1.30
2022-12-09T02:40:58.579Z,-1.30
2022-12-09T02:43:30.471Z,-1.40
2022-12-09T02:46:00.472Z,-1.40
2022-12-09T02:48:35.754Z,-1.50
2022-12-09T02:51:10.749Z,-1.60
2022-12-09T02:53:39.415Z,-1.70
2022-12-09T02:56:08.349Z,-1.70
2022-12-09T02:58:35.765Z,-1.70
2022-12-09T03:01:03.972Z,-1.70
2022-12-09T03:03:34.238Z,-1.70
2022-12-09T03:06:08.272Z,-1.70
2022-12-09T03:08:38.529Z,-1.80
2022-12-09T03:11:16.561Z,-1.90
2022-12-09T03:14:02.874Z,-1.90
2022-12-09T03:16:32.678Z,-1.90
2022-12-09T03:19:29.778Z,-1.80
2022-12-09T03:22:00.463Z,-1.70
2022-12-09T03:24:39.576Z,-1.70
2022-12-09T03:27:11.072Z,-1.70
2022-12-09T03:29:42.797Z,-1.70
2022-12-09T03:32:12.672Z,-1.80
2022-12-09T03:34:42.432Z,-1.90
2022-12-09T03:37:12.119Z,-2.00
2022-12-09T03:39:41.162Z,-2.00
2022-12-09T03:42:19.396Z,-2.10
2022-12-09T03:44:57.310Z,-2.10
2022-12-09T03:47:24.695Z,-2.10
2022-12-09T03:49:51.993Z,-2.10
2022-12-09T03:52:46.588Z,-2.10
2022-12-09T03:55:16.523Z,-2.10
2022-12-09T03:57:45.921Z,-2.00
2022-12-09T04:00:13.888Z,-2.00
2022-12-09T04:02:41.948Z,-1.90
2022-12-09T04:05:09.529Z,-1.90
2022-12-09T04:07:37.105Z,-1.80
2022-12-09T04:10:06.094Z,-1.80
2022-12-09T04:12:33.962Z,-1.70
2022-12-09T04:15:00.873Z,-1.70
2022-12-09T04:17:28.155Z,-1.60
2022-12-09T04:19:55.161Z,-1.50
2022-12-09T04:22:22.507Z,-1.40
2022-12-09T04:24:49.751Z,-1.50
2022-12-09T04:27:17.112Z,-1.50
2022-12-09T04:29:45.041Z,-1.50
2022-12-09T04:32:12.769Z,-1.50
2022-12-09T04:34:40.157Z,-1.50
2022-12-09T04:37:07.565Z,-1.60
2022-12-09T04:39:34.528Z,-1.50
2022-12-09T04:42:02.625Z,-1.50
2022-12-09T04:44:29.609Z,-1.40
2022-12-09T04:46:59.207Z,-1.50
2022-12-09T04:49:26.260Z,-1.60
2022-12-09T04:51:53.836Z,-1.70
2022-12-09T04:54:21.028Z,-1.70
2022-12-09T04:56:49.592Z,-1.90
2022-12-09T04:59:16.836Z,-2.10
2022-12-09T05:01:44.394Z,-2.30
2022-12-09T05:04:12.015Z,-2.30
2022-12-09T05:06:39.564Z,-2.30
2022-12-09T05:09:11.457Z,-2.20
2022-12-09T05:11:39.260Z,-2.10
2022-12-09T05:14:06.658Z,-2.00
2022-12-09T05:16:34.345Z,-2.10
2022-12-09T05:19:01.657Z,-2.10
2022-12-09T05:21:29.371Z,-2.20
2022-12-09T05:23:56.872Z,-2.20
2022-12-09T05:26:24.472Z,-2.20
2022-12-09T05:28:52.486Z,-2.30
2022-12-09T05:31:22.861Z,-2.20
2022-12-09T05:33:51.642Z,-2.20
2022-12-09T05:36:22.347Z,-2.20
2022-12-09T05:38:49.695Z,-2.10
2022-12-09T05:41:19.033Z,-2.10
2022-12-09T05:43:47.086Z,-2.00
2022-12-09T05:46:15.792Z,-2.00
2022-12-09T05:48:43.607Z,-1.90
2022-12-09T05:51:18.169Z,-1.90
2022-12-09T05:53:45.592Z,-2.00
2022-12-09T05:56:16.955Z,-2.10
2022-12-09T05:58:44.413Z,-2.10
2022-12-09T06:01:12.520Z,-2.10
2022-12-09T06:03:39.767Z,-2.10
2022-12-09T06:06:10.296Z,-2.20
2022-12-09T06:08:38.549Z,-2.30
2022-12-09T06:11:12.804Z,-2.30
2022-12-09T06:13:40.053Z,-2.30
2022-12-09T06:16:08.644Z,-2.20
2022-12-09T06:18:37.070Z,-2.30
2022-12-09T06:21:09.341Z,-2.30
2022-12-09T06:23:38.482Z,-2.40
2022-12-09T06:26:06.295Z,-2.40
2022-12-09T06:28:34.166Z,-2.30
2022-12-09T06:31:01.779Z,-2.30
2022-12-09T06:33:53.577Z,-2.30
2022-12-09T06:36:16.820Z,-2.20
2022-12-09T06:38:44.423Z,-2.20
2022-12-09T06:41:14.355Z,-2.30
2022-12-09T06:43:41.961Z,-2.30
2022-12-09T06:46:14.634Z,-2.40
2022-12-09T06:48:42.228Z,-2.40
2022-12-09T06:51:10.454Z,-2.40
2022-12-09T06:53:37.908Z,-2.50
2022-12-09T06:56:11.881Z,-2.50
2022-12-09T06:58:45.049Z,-2.60
2022-12-09T07:01:23.872Z,-2.70
2022-12-09T07:03:54.772Z,-2.70
2022-12-09T07:06:34.586Z,-2.60
2022-12-09T07:09:08.133Z,-2.40
2022-12-09T07:11:36.763Z,-2.20
2022-12-09T07:14:04.572Z,-2.00
2022-12-09T07:16:32.178Z,-1.90
2022-12-09T07:19:00.220Z,-1.80
2022-12-09T07:21:29.742Z,-1.80
2022-12-09T07:24:00.795Z,-1.80
2022-12-09T07:26:32.704Z,-1.80
2022-12-09T07:29:03.293Z,-1.70
2022-12-09T07:31:31.199Z,-1.60
2022-12-09T07:33:59.363Z,-1.50
2022-12-09T07:36:29.025Z,-1.40
2022-12-09T07:39:02.452Z,-1.30
2022-12-09T07:41:30.360Z,-1.20
2022-12-09T07:43:57.982Z,-1.20
2022-12-09T07:46:27.560Z,-1.10
2022-12-09T07:48:56.261Z,-1.00
2022-12-09T07:51:25.126Z,-0.90
2022-12-09T07:53:52.709Z,-0.80
2022-12-09T07:56:20.352Z,-0.70
2022-12-09T07:58:49.027Z,-0.50
2022-12-09T08:01:18.856Z,-0.40
2022-12-09T08:03:48.516Z,-0.30
2022-12-09T08:06:20.480Z,-0.20
2022-12-09T08:08:48.421Z,0.00
2022-12-09T08:11:23.518Z,0.20
2022-12-09T08:13:52.391Z,0.40
2022-12-09T08:16:23.016Z,0.70
2022-12-09T08:18:50.832Z,1.00
2022-12-09T08:21:30.628Z,1.30
2022-12-09T08:24:02.265Z,1.40
2022-12-09T08:26:32.402Z,1.70
2022-12-09T08:29:00.991Z,1.70
2022-12-09T08:31:28.804Z,1.70
2022-12-09T08:33:57.104Z,1.70
2022-12-09T08:36:40.116Z,1.70
2022-12-09T08:39:25.676Z,1.80
2022-12-09T08:42:47.785Z,1.70
2022-12-09T08:45:50.054Z,1.60
2022-12-09T08:48:32.861Z,1.60
2022-12-09T08:51:35.119Z,1.60
2022-12-09T08:54:37.131Z,1.60
2022-12-09T08:57:43.205Z,1.60
2022-12-09T09:00:25.260Z,1.60
2022-12-09T09:03:27.387Z,1.60
2022-12-09T09:06:30.310Z,1.70
2022-12-09T09:09:33.422Z,1.70
2022-12-09T09:12:15.467Z,1.80
2022-12-09T09:15:17.606Z,2.00
2022-12-09T09:18:40.191Z,2.00
2022-12-09T09:21:42.499Z,2.00
2022-12-09T09:24:44.343Z,2.10
2022-12-09T09:27:46.511Z,2.20
2022-12-09T09:30:28.630Z,2.10
2022-12-09T09:33:30.819Z,2.10
2022-12-09T09:36:33.412Z,2.10
2022-12-09T09:39:35.533Z,2.20
2022-12-09T09:42:23.499Z,2.20
2022-12-09T09:45:27.496Z,2.20
2022-12-09T09:48:49.602Z,2.20
2022-12-09T09:51:52.808Z,2.20
2022-12-09T09:54:35.075Z,2.20
2022-12-09T09:57:43.805Z,2.20
2022-12-09T10:00:52.568Z,1.80
2022-12-09T10:04:15.803Z,1.60
2022-12-09T10:07:07.188Z,1.60
2022-12-09T10:10:05.587Z,1.80
2022-12-09T10:13:18.371Z,2.00
2022-12-09T10:16:32.836Z,1.90
2022-12-09T10:19:20.893Z,1.70
2022-12-09T10:22:25.658Z,1.70
2022-12-09T10:25:29.214Z,1.80
2022-12-09T10:28:20.846Z,1.80
2022-12-09T10:31:03.345Z,1.90
2022-12-09T10:34:05.630Z,2.00
2022-12-09T10:36:48.823Z,2.00
2022-12-09T10:39:21.933Z,2.00
2022-12-09T10:42:11.460Z,2.10
2022-12-09T10:44:39.021Z,2.10
2022-12-09T10:47:24.066Z,2.10
2022-12-09T10:49:54.390Z,2.10
2022-12-09T10:52:23.637Z,2.10
2022-12-09T10:54:51.606Z,2.20
2022-12-09T10:57:18.982Z,2.20
2022-12-09T11:00:00.840Z,2.20
2022-12-09T11:02:30.275Z,2.20
2022-12-09T11:05:20.179Z,2.30
2022-12-09T11:07:50.341Z,2.30
2022-12-09T11:10:22.325Z,2.30
2022-12-09T11:13:01.657Z,2.30
2022-12-09T11:15:35.347Z,2.40
2022-12-09T11:18:23.048Z,2.60
2022-12-09T11:20:58.055Z,2.80
2022-12-09T11:23:25.504Z,2.90
2022-12-09T11:26:01.092Z,2.90
2022-12-09T11:28:31.321Z,2.80
2022-12-09T11:33:56.890Z,2.80
2022-12-09T11:36:30.787Z,2.90
2022-12-09T11:39:21.902Z,3.00
2022-12-09T11:42:19.017Z,3.20
2022-12-09T11:45:15.056Z,3.50
2022-12-09T11:48:32.026Z,4.00
2022-12-09T11:51:47.534Z,4.60
2022-12-09T11:54:57.361Z,5.00
2022-12-09T11:58:02.025Z,5.60
2022-12-09T12:01:13.179Z,6.00
2022-12-09T12:04:14.951Z,5.90
2022-12-09T12:07:05.596Z,5.70
2022-12-09T12:09:46.488Z,5.60
2022-12-09T12:12:23.247Z,5.60
2022-12-09T12:14:50.554Z,5.60
2022-12-09T12:17:24.757Z,5.60
2022-12-09T12:19:54.286Z,5.60
2022-12-09T12:22:40.473Z,5.60
2022-12-09T12:25:26.263Z,5.60
2022-12-09T12:28:14.395Z,5.50
2022-12-09T12:30:54.338Z,5.50
2022-12-09T12:36:46.165Z,5.70
2022-12-09T12:39:47.041Z,5.70
2022-12-09T12:42:23.373Z,5.80
2022-12-09T12:45:35.926Z,5.70
2022-12-09T12:48:18.584Z,5.60
2022-12-09T12:50:45.500Z,5.40
2022-12-09T12:53:27.491Z,5.20
2022-12-09T12:56:01.969Z,5.00
2022-12-09T12:58:32.286Z,4.90
2022-12-09T13:01:05.209Z,4.70
2022-12-09T13:03:47.627Z,4.70
2022-12-09T13:06:18.645Z,4.60
2022-12-09T13:08:52.610Z,4.40
2022-12-09T13:11:37.523Z,4.20
2022-12-09T13:14:11.368Z,4.00
2022-12-09T13:16:43.380Z,3.80
2022-12-09T13:19:13.463Z,3.60
2022-12-09T13:21:41.079Z,3.50
2022-12-09T13:24:22.003Z,3.20
2022-12-09T13:27:14.715Z,3.00
2022-12-09T13:30:17.016Z,2.80
2022-12-09T13:33:08.656Z,2.60
2022-12-09T13:35:51.910Z,2.50
2022-12-09T13:38:40.675Z,2.40
2022-12-09T13:42:05.320Z,2.20
2022-12-09T13:44:36.963Z,2.10
2022-12-09T13:47:26.129Z,1.90
2022-12-09T13:49:58.742Z,1.80
2022-12-09T13:52:52.263Z,1.70
2022-12-09T13:55:25.876Z,1.50
2022-12-09T13:58:04.760Z,1.50
2022-12-09T14:01:04.867Z,1.40
2022-12-09T14:04:26.931Z,1.30
2022-12-09T14:07:10.312Z,1.10
2022-12-09T14:09:48.461Z,1.10
2022-12-09T14:12:44.101Z,1.00
2022-12-09T14:15:51.302Z,0.90
2022-12-09T14:18:33.463Z,0.70
2022-12-09T14:21:18.409Z,0.60
2022-12-09T14:24:09.555Z,0.30
2022-12-09T14:26:53.865Z,0.10
2022-12-09T14:29:58.504Z,0.00
2022-12-09T14:33:30.683Z,0.00
2022-12-09T14:36:15.540Z,0.00
2022-12-09T14:39:24.619Z,-0.10
2022-12-09T14:42:42.774Z,-0.20
2022-12-09T14:45:35.627Z,-0.30
2022-12-09T14:48:09.450Z,-0.40
2022-12-09T14:50:38.784Z,-0.40
2022-12-09T14:53:19.105Z,-0.30
2022-12-09T14:55:46.546Z,-0.20
2022-12-09T14:58:21.725Z,-0.20
2022-12-09T15:01:01.289Z,-0.20
2022-12-09T15:03:35.629Z,-0.10
2022-12-09T15:06:18.277Z,-0.20
2022-12-09T15:08:45.785Z,-0.30
2022-12-09T15:11:20.671Z,-0.30
2022-12-09T15:13:51.210Z,-0.30
2022-12-09T15:16:22.065Z,-0.30
2022-12-09T15:18:50.275Z,-0.40
2022-12-09T15:21:27.784Z,-0.50
2022-12-09T15:23:55.761Z,-0.60
2022-12-09T15:26:26.958Z,-0.70
2022-12-09T15:28:59.646Z,-0.80
2022-12-09T15:31:29.221Z,-0.80
2022-12-09T15:34:15.836Z,-0.80
2022-12-09T15:37:04.722Z,-0.70
2022-12-09T15:39:40.056Z,-0.60
2022-12-09T15:42:18.106Z,-0.50
2022-12-09T15:44:53.473Z,-0.40
2022-12-09T15:47:33.703Z,-0.30
2022-12-09T15:50:47.818Z,-0.30
2022-12-09T15:53:26.862Z,-0.30
2022-12-09T15:55:53.771Z,-0.40
2022-12-09T15:58:25.854Z,-0.40
2022-12-09T16:00:53.847Z,-0.50
2022-12-09T16:03:26.047Z,-0.60
2022-12-09T16:05:55.449Z,-0.60
2022-12-09T16:08:23.604Z,-0.70
2022-12-09T16:10:52.228Z,-0.80
2022-12-09T16:13:21.430Z,-0.80
2022-12-09T16:15:54.207Z,-0.70
2022-12-09T16:18:28.250Z,-0.60
2022-12-09T16:21:15.016Z,-0.50
2022-12-09T16:23:44.157Z,-0.40
2022-12-09T16:26:28.068Z,-0.30
2022-12-09T16:28:58.701Z,-0.30
2022-12-09T16:31:25.848Z,-0.30
2022-12-09T16:33:53.613Z,-0.30
2022-12-09T16:36:25.556Z,-0.20
2022-12-09T16:39:07.901Z,-0.20
2022-12-09T16:41:52.952Z,-0.10
2022-12-09T16:44:33.812Z,0.00
2022-12-09T16:47:16.407Z,-0.20
2022-12-09T16:49:48.137Z,-0.40
2022-12-09T16:52:20.550Z,-0.50
2022-12-09T16:54:49.142Z,-0.60
2022-12-09T16:57:18.740Z,-0.70
2022-12-09T16:59:46.676Z,-0.80
2022-12-09T17:02:24.012Z,-0.80
2022-12-09T17:04:52.038Z,-0.80
2022-12-09T17:07:19.075Z,-0.70
2022-12-09T17:09:46.330Z,-0.70
2022-12-09T17:12:13.353Z,-0.60
2022-12-09T17:14:40.692Z,-0.60
2022-12-09T17:17:07.701Z,-0.40
2022-12-09T17:19:35.111Z,-0.20
2022-12-09T17:22:02.012Z,0.10
2022-12-09T17:24:29.210Z,0.10
2022-12-09T17:26:56.166Z,0.20
2022-12-09T17:29:23.354Z,0.20
2022-12-09T17:31:51.876Z,0.10
2022-12-09T17:34:20.178Z,0.10
2022-12-09T17:36:47.358Z,0.20
2022-12-09T17:39:15.068Z,0.50
2022-12-09T17:41:42.760Z,0.60
2022-12-09T17:44:10.045Z,0.70
2022-12-09T17:46:37.059Z,0.80
2022-12-09T17:49:04.465Z,0.80
2022-12-09T17:51:35.931Z,0.70
2022-12-09T17:54:04.525Z,0.80
2022-12-09T17:56:31.592Z,0.80
2022-12-09T17:59:07.312Z,0.70
2022-12-09T18:01:36.245Z,0.60
2022-12-09T18:04:09.520Z,0.50
2022-12-09T18:06:39.279Z,0.60
2022-12-09T18:09:08.809Z,0.70
2022-12-09T18:11:36.330Z,0.70
2022-12-09T18:14:04.515Z,0.80
2022-12-09T18:16:32.058Z,0.80
2022-12-09T18:19:08.705Z,0.90
2022-12-09T18:21:36.012Z,1.10
2022-12-09T18:24:03.783Z,1.20
2022-12-09T18:26:34.141Z,1.10
2022-12-09T18:29:05.872Z,1.10
2022-12-09T18:31:32.985Z,1.30
2022-12-09T18:34:00.178Z,1.20
2022-12-09T18:36:28.837Z,1.20
2022-12-09T18:38:58.692Z,1.20
2022-12-09T18:41:29.196Z,1.20
2022-12-09T18:43:58.696Z,1.20
2022-12-09T18:46:30.086Z,1.10
2022-12-09T18:48:57.501Z,1.10
2022-12-09T18:51:24.933Z,1.00
2022-12-09T18:53:57.960Z,1.10
2022-12-09T18:56:25.773Z,1.20
2022-12-09T18:59:09.487Z,1.20
2022-12-09T19:01:41.119Z,1.20
2022-12-09T19:04:17.895Z,1.20
2022-12-09T19:06:47.563Z,1.20
2022-12-09T19:09:17.515Z,1.20
2022-12-09T19:11:46.699Z,1.20
2022-12-09T19:14:15.902Z,1.20
2022-12-09T19:16:43.996Z,1.20
2022-12-09T19:19:14.329Z,1.20
2022-12-09T19:21:42.432Z,1.20
2022-12-09T19:24:26.084Z,1.20
2022-12-09T19:26:55.057Z,1.20
2022-12-09T19:29:24.665Z,1.20
2022-12-09T19:31:53.767Z,1.10
2022-12-09T19:34:24.167Z,1.20
2022-12-09T19:36:53.640Z,1.20
2022-12-09T19:39:24.065Z,1.20
2022-12-09T19:41:51.626Z,1.20
2022-12-09T19:44:37.269Z,1.10
2022-12-09T19:47:07.567Z,1.20
2022-12-09T19:49:36.248Z,1.20
2022-12-09T19:52:03.592Z,1.10
2022-12-09T19:54:30.886Z,1.20
2022-12-09T19:56:57.866Z,1.10
2022-12-09T19:59:26.729Z,1.10
2022-12-09T20:01:53.755Z,1.20
2022-12-09T20:04:48.223Z,1.20
2022-12-09T20:07:09.902Z,1.20
2022-12-09T20:09:37.932Z,1.20
2022-12-09T20:12:05.317Z,1.30
2022-12-09T20:14:32.619Z,1.30
2022-12-09T20:16:59.895Z,1.20
2022-12-09T20:19:27.115Z,1.20
2022-12-09T20:21:54.252Z,1.20
2022-12-09T20:24:21.457Z,1.20
2022-12-09T20:26:48.428Z,1.20
2022-12-09T20:29:15.724Z,1.20
2022-12-09T20:31:43.064Z,1.30
2022-12-09T20:34:16.214Z,1.30
2022-12-09T20:36:45.449Z,1.20
2022-12-09T20:39:18.408Z,1.20
2022-12-09T20:41:46.865Z,1.10
2022-12-09T20:44:15.339Z,1.20
2022-12-09T20:46:49.301Z,1.20
2022-12-09T20:49:16.725Z,1.20
2022-12-09T20:51:48.653Z,1.20
2022-12-09T20:54:16.396Z,1.20
2022-12-09T20:56:43.540Z,1.20
2022-12-09T20:59:13.530Z,1.20
2022-12-09T21:01:41.309Z,1.30
2022-12-09T21:04:08.631Z,1.40
2022-12-09T21:06:38.430Z,1.30
2022-12-09T21:09:08.746Z,1.40
2022-12-09T21:11:36.269Z,1.30
2022-12-09T21:14:04.854Z,1.30
2022-12-09T21:16:34.363Z,1.20
2022-12-09T21:19:05.237Z,1.10
2022-12-09T21:21:35.449Z,1.10
2022-12-09T21:24:03.352Z,1.10
2022-12-09T21:26:30.310Z,1.00
2022-12-09T21:29:01.373Z,1.10
2022-12-09T21:31:30.908Z,1.00
2022-12-09T21:34:01.798Z,1.00
2022-12-09T21:36:35.452Z,1.00
2022-12-09T21:39:03.785Z,1.00
2022-12-09T21:41:33.887Z,1.10
2022-12-09T21:44:01.183Z,1.00
2022-12-09T21:46:33.563Z,1.00
2022-12-09T21:49:04.285Z,1.00
2022-12-09T21:51:32.753Z,1.00
2022-12-09T21:54:00.554Z,1.00
2022-12-09T21:56:30.722Z,1.00
2022-12-09T21:58:59.012Z,1.10
2022-12-09T22:01:29.114Z,1.20
2022-12-09T22:03:58.149Z,1.20
2022-12-09T22:06:25.602Z,1.20
2022-12-09T22:08:53.174Z,1.20
2022-12-09T22:11:23.391Z,1.20
2022-12-09T22:13:51.018Z,1.30
2022-12-09T22:16:23.314Z,1.30
2022-12-09T22:18:52.946Z,1.30
2022-12-09T22:21:25.986Z,1.20
2022-12-09T22:23:55.204Z,1.20
2022-12-09T22:26:23.044Z,1.20
2022-12-09T22:28:50.903Z,1.20
2022-12-09T22:31:29.335Z,1.30
2022-12-09T22:34:00.622Z,1.40
2022-12-09T22:36:27.830Z,1.30
2022-12-09T22:38:55.430Z,1.30
2022-12-09T22:41:25.757Z,1.20
2022-12-09T22:43:54.993Z,1.20
2022-12-09T22:46:28.289Z,1.20
2022-12-09T22:48:57.257Z,1.30
2022-12-09T22:51:26.468Z,1.30
2022-12-09T22:53:55.318Z,1.40
2022-12-09T22:56:23.098Z,1.40
2022-12-09T22:58:50.976Z,1.40
2022-12-09T23:01:24.205Z,1.40
2022-12-09T23:03:51.854Z,1.30
2022-12-09T23:06:18.869Z,1.40
2022-12-09T23:08:46.774Z,1.30
2022-12-09T23:11:16.725Z,1.30
2022-12-09T23:13:44.392Z,1.40
2022-12-09T23:16:15.447Z,1.40
2022-12-09T23:18:43.023Z,1.30
2022-12-09T23:21:11.454Z,1.30
2022-12-09T23:23:39.311Z,1.20
2022-12-09T23:26:09.182Z,1.20
2022-12-09T23:28:41.341Z,1.30
2022-12-09T23:31:10.371Z,1.30
2022-12-09T23:33:39.228Z,1.20
2022-12-09T23:36:08.853Z,1.30
2022-12-09T23:38:36.729Z,1.30
2022-12-09T23:41:04.322Z,1.30
2022-12-09T23:43:36.654Z,1.40
2022-12-09T23:46:14.462Z,1.40
2022-12-09T23:48:44.336Z,1.40
2022-12-09T23:51:12.723Z,1.30
2022-12-09T23:53:41.462Z,1.30
2022-12-09T23:56:12.502Z,1.30
2022-12-09T23:58:40.224Z,1.30
